Anaheim, California
Current Conditions -  °F | °C
As of 11:53 PM on Thursday 30 Oct 2014 (Local Time) from KFUL Reporting Station
Clear Clear  
Wind Chill: 64°   Ceiling: Unl
Heat Index: 64°   Visibility: 10mi
Dew Point: 58°   Wind: 0mph
Humidity: 80%   Direction: NA
Pressure: 29.96"   Gusts: NA
Location:  33.83°N, 117.91°W
Report Text: KFUL 310653Z 00000KT 10SM CLR 18/14 A2996 RMK AO2 SLP143 T01780144 $
Loading
Personal Weather Stations






























Interactive Weather Map New forecast layout! Learn more

10-Day Weather Forecast

Advertisements
Track Severe Weather on mobile